Time;durP1;ratioP1;P1;durP2;ratioP2;P2;SDS_P1;SDS_P2;PMS_P1;PMS_P2;Temp;Humidity;BMP_temperature;BMP_pressure;BME280_temperature;BME280_humidity;BME280_pressure;Samples;Min_cycle;Max_cycle;Signal;HPM_P1;HPM_P2
2021/07/29 00:00:31;;;;;;;2.88;0.90;;;24.30;60.70;;;;;;5054451;28;20033;-67
2021/07/29 00:02:57;;;;;;;2.13;0.88;;;24.30;60.70;;;;;;5054412;28;20029;-67
2021/07/29 00:05:22;;;;;;;3.08;1.23;;;24.30;60.70;;;;;;5054314;28;20097;-67
2021/07/29 00:07:51;;;;;;;2.97;1.27;;;24.30;60.70;;;;;;5054252;28;20029;-67
2021/07/29 00:10:18;;;;;;;2.80;1.10;;;24.30;60.70;;;;;;5054258;28;20033;-67
2021/07/29 00:12:44;;;;;;;1.58;0.80;;;24.30;60.70;;;;;;5053904;28;20075;-67
2021/07/29 00:15:11;;;;;;;3.38;1.10;;;24.30;60.60;;;;;;5054236;28;20268;-67
2021/07/29 00:20:13;;;;;;;2.88;1.10;;;24.20;60.60;;;;;;5054114;28;20021;-67
2021/07/29 00:22:43;;;;;;;2.40;1.10;;;24.20;60.60;;;;;;5054049;28;20025;-67
2021/07/29 00:25:13;;;;;;;1.83;0.80;;;24.30;60.60;;;;;;5054048;28;20025;-67
2021/07/29 00:27:39;;;;;;;2.13;0.88;;;24.20;60.60;;;;;;5053938;28;20059;-67
2021/07/29 00:30:06;;;;;;;3.00;1.10;;;24.20;60.60;;;;;;5053882;28;20028;-67
2021/07/29 00:32:32;;;;;;;3.00;1.10;;;24.20;60.60;;;;;;5053731;28;20021;-67
2021/07/29 00:34:58;;;;;;;2.25;0.90;;;24.20;60.60;;;;;;5053814;28;20068;-67
2021/07/29 00:37:24;;;;;;;2.65;1.00;;;24.20;60.50;;;;;;5053701;28;20029;-67
2021/07/29 00:39:50;;;;;;;2.67;0.95;;;24.20;60.50;;;;;;5053719;28;20033;-67
2021/07/29 00:42:16;;;;;;;1.88;0.90;;;24.20;60.60;;;;;;5053619;28;20053;-67
2021/07/29 00:44:41;;;;;;;1.85;0.90;;;24.20;60.50;;;;;;5053585;28;20106;-67
2021/07/29 00:47:07;;;;;;;2.40;0.95;;;24.10;60.40;;;;;;5052988;28;20501;-67
2021/07/29 00:49:36;;;;;;;2.08;0.90;;;24.10;60.40;;;;;;5053515;28;20112;-67
2021/07/29 00:52:02;;;;;;;2.30;1.02;;;24.10;61.00;;;;;;5053613;28;20061;-67
2021/07/29 00:54:29;;;;;;;3.53;1.08;;;24.10;60.40;;;;;;5053344;28;20029;-67
2021/07/29 00:56:57;;;;;;;2.20;1.00;;;24.10;60.40;;;;;;5053320;28;20079;-67
2021/07/29 00:59:23;;;;;;;2.40;0.90;;;24.10;60.40;;;;;;5053328;28;20017;-67
2021/07/29 01:01:49;;;;;;;2.67;1.42;;;24.10;60.40;;;;;;5053283;28;20601;-67
2021/07/29 01:04:16;;;;;;;1.60;0.80;;;24.10;60.40;;;;;;5053259;28;20514;-67
2021/07/29 01:06:42;;;;;;;3.08;1.10;;;24.10;60.40;;;;;;5053140;28;20021;-67
2021/07/29 01:09:09;;;;;;;2.83;1.08;;;24.10;60.40;;;;;;5053144;28;20483;-67
2021/07/29 01:11:40;;;;;;;2.00;0.90;;;24.10;60.40;;;;;;5053127;28;20037;-67
2021/07/29 01:14:07;;;;;;;2.00;0.90;;;24.10;60.30;;;;;;5052765;28;20048;-67
2021/07/29 01:16:33;;;;;;;2.05;0.80;;;24.10;60.30;;;;;;5051587;28;20021;-67
2021/07/29 01:19:00;;;;;;;2.50;0.80;;;24.10;60.30;;;;;;5053196;28;20045;-67
2021/07/29 01:21:30;;;;;;;2.13;1.10;;;24.10;60.30;;;;;;5052897;28;20035;-67
2021/07/29 01:23:56;;;;;;;2.42;0.98;;;24.10;60.30;;;;;;5052886;28;20021;-67
2021/07/29 01:26:23;;;;;;;3.17;1.10;;;24.10;60.30;;;;;;5052753;28;20029;-67
2021/07/29 01:28:49;;;;;;;2.15;0.80;;;24.10;60.30;;;;;;5052740;28;20035;-67
2021/07/29 01:31:16;;;;;;;1.70;1.13;;;24.00;60.30;;;;;;5051493;28;20029;-67
2021/07/29 01:33:42;;;;;;;2.20;0.90;;;24.00;60.20;;;;;;5052604;28;20029;-67
2021/07/29 01:36:08;;;;;;;1.33;0.75;;;24.00;60.20;;;;;;5052599;28;20025;-67
2021/07/29 01:38:33;;;;;;;2.70;0.98;;;24.00;60.20;;;;;;5052585;28;20033;-67
2021/07/29 01:41:01;;;;;;;2.70;1.10;;;24.00;60.20;;;;;;5053046;28;20032;-68
2021/07/29 01:43:27;;;;;;;2.83;1.08;;;24.00;60.20;;;;;;5052544;28;20479;-68
2021/07/29 01:45:53;;;;;;;3.65;1.10;;;24.00;60.20;;;;;;5052408;28;20036;-67
2021/07/29 01:48:18;;;;;;;2.35;1.05;;;24.00;60.20;;;;;;5052398;28;20029;-68
2021/07/29 01:50:45;;;;;;;2.38;1.05;;;24.00;60.20;;;;;;5051143;28;20025;-67
2021/07/29 01:53:11;;;;;;;2.40;1.08;;;24.00;60.20;;;;;;5052191;28;20040;-67
2021/07/29 01:55:47;;;;;;;3.30;0.98;;;24.00;60.20;;;;;;5052347;28;20025;-68
2021/07/29 01:58:14;;;;;;;2.85;1.27;;;24.00;60.20;;;;;;5051444;28;20053;-67
2021/07/29 02:00:41;;;;;;;2.35;1.10;;;24.00;60.10;;;;;;5052226;28;20014;-67
2021/07/29 02:03:07;;;;;;;2.47;0.93;;;24.00;60.20;;;;;;5052111;28;20053;-67
2021/07/29 02:05:33;;;;;;;2.55;1.10;;;24.00;60.20;;;;;;5052126;28;20095;-67
2021/07/29 02:08:00;;;;;;;2.33;1.00;;;24.00;60.20;;;;;;5051927;28;20479;-67
2021/07/29 02:10:26;;;;;;;2.10;0.90;;;23.90;60.10;;;;;;5051889;28;20041;-67
2021/07/29 02:12:53;;;;;;;3.42;1.10;;;23.90;60.10;;;;;;5051666;28;20111;-67
2021/07/29 02:15:19;;;;;;;2.28;1.00;;;23.90;60.10;;;;;;5051928;28;20090;-67
2021/07/29 02:17:45;;;;;;;2.90;1.10;;;23.90;60.10;;;;;;5051807;28;20365;-67
2021/07/29 02:20:11;;;;;;;2.75;1.10;;;23.90;60.10;;;;;;5051791;28;20299;-67
2021/07/29 02:22:37;;;;;;;2.80;1.10;;;23.90;60.10;;;;;;5052209;28;20040;-67
2021/07/29 02:25:05;;;;;;;2.65;1.15;;;23.90;60.10;;;;;;5051696;28;20033;-67
2021/07/29 02:27:31;;;;;;;2.70;1.05;;;23.90;60.00;;;;;;5051560;28;20032;-67
2021/07/29 02:29:57;;;;;;;3.60;1.02;;;23.90;60.00;;;;;;5051817;28;20025;-67
2021/07/29 02:32:24;;;;;;;2.38;1.00;;;23.90;60.00;;;;;;5051982;28;20033;-67
2021/07/29 02:34:52;;;;;;;2.70;1.05;;;23.90;60.00;;;;;;5051443;28;20041;-67
2021/07/29 02:37:18;;;;;;;2.63;1.05;;;23.90;60.00;;;;;;5051406;28;20036;-67
2021/07/29 02:39:43;;;;;;;3.20;1.20;;;23.90;60.00;;;;;;5051424;28;20467;-67
2021/07/29 02:42:09;;;;;;;3.55;1.15;;;23.90;60.00;;;;;;5051410;28;20048;-67
2021/07/29 02:44:35;;;;;;;2.83;1.10;;;23.80;60.00;;;;;;5051419;28;20023;-67
2021/07/29 02:47:01;;;;;;;2.72;0.95;;;23.80;60.00;;;;;;5051253;28;20488;-67
2021/07/29 02:49:27;;;;;;;1.98;0.90;;;23.80;60.00;;;;;;5051778;28;20036;-67
2021/07/29 02:51:52;;;;;;;3.30;0.93;;;23.90;60.00;;;;;;5051290;28;20381;-67
2021/07/29 02:54:18;;;;;;;2.22;1.05;;;23.80;60.00;;;;;;5051153;28;20033;-67
2021/07/29 02:56:44;;;;;;;3.13;1.30;;;23.80;59.90;;;;;;5051170;28;20041;-67
2021/07/29 02:59:10;;;;;;;3.08;1.10;;;23.80;59.90;;;;;;5049999;28;20025;-67
2021/07/29 03:01:35;;;;;;;2.78;1.08;;;23.80;59.90;;;;;;5051162;28;20025;-67
2021/07/29 03:04:01;;;;;;;3.33;1.10;;;23.80;59.90;;;;;;5051110;28;20040;-67
2021/07/29 03:06:26;;;;;;;;;;;23.80;59.90;;;;;;5033564;28;20035;-67
2021/07/29 03:08:52;;;;;;;2.88;1.30;;;23.80;59.90;;;;;;5050921;28;19931;-67
2021/07/29 03:11:18;;;;;;;2.25;1.10;;;23.80;59.90;;;;;;5049765;28;20037;-67
2021/07/29 03:13:43;;;;;;;2.80;1.05;;;23.80;59.90;;;;;;5050768;28;20060;-67
2021/07/29 03:16:09;;;;;;;3.10;1.25;;;23.70;59.80;;;;;;5050918;28;20523;-67
2021/07/29 03:18:35;;;;;;;2.53;1.08;;;23.70;59.80;;;;;;5051076;28;20172;-67
2021/07/29 03:21:00;;;;;;;3.58;1.10;;;23.70;59.80;;;;;;5050966;28;20025;-67
2021/07/29 03:23:27;;;;;;;2.33;1.02;;;23.80;59.90;;;;;;5050873;28;20037;-67
2021/07/29 03:25:54;;;;;;;2.55;1.10;;;23.70;59.80;;;;;;5050839;28;20022;-67
2021/07/29 03:28:20;;;;;;;2.83;1.45;;;23.70;59.80;;;;;;5050940;28;20029;-67
2021/07/29 03:30:46;;;;;;;1.77;0.98;;;23.70;59.80;;;;;;5051136;28;20039;-67
2021/07/29 03:33:13;;;;;;;2.10;1.00;;;23.70;59.80;;;;;;5050778;28;20021;-67
2021/07/29 03:35:40;;;;;;;2.72;1.17;;;23.70;59.70;;;;;;5049535;28;20383;-67
2021/07/29 03:38:07;;;;;;;2.17;1.02;;;23.70;59.70;;;;;;5050690;28;20107;-67
2021/07/29 03:40:33;;;;;;;2.70;1.17;;;23.70;59.70;;;;;;5050821;28;20021;-67
2021/07/29 03:43:02;;;;;;;3.40;1.33;;;23.70;59.70;;;;;;5050796;28;20029;-67
2021/07/29 03:45:29;;;;;;;2.50;1.27;;;23.70;59.70;;;;;;5050877;28;20021;-67
2021/07/29 03:47:55;;;;;;;3.22;1.30;;;23.70;59.60;;;;;;5050603;28;20070;-67
2021/07/29 03:50:21;;;;;;;2.75;1.13;;;23.60;59.60;;;;;;5050617;28;20089;-67
2021/07/29 03:52:47;;;;;;;4.10;1.27;;;23.60;59.60;;;;;;5050875;28;20021;-67
2021/07/29 03:55:13;;;;;;;2.67;1.20;;;23.60;59.60;;;;;;5050658;28;20028;-67
2021/07/29 03:57:38;;;;;;;2.45;1.10;;;23.70;59.60;;;;;;5049235;28;20021;-66
2021/07/29 04:00:05;;;;;;;3.65;1.30;;;23.60;59.60;;;;;;5050613;28;20036;-67
2021/07/29 04:02:31;;;;;;;2.67;1.30;;;23.60;59.50;;;;;;5050503;28;20560;-67
2021/07/29 04:04:57;;;;;;;2.63;1.05;;;23.60;59.60;;;;;;5032631;28;20120;-67
2021/07/29 04:07:23;;;;;;;2.20;0.95;;;23.60;59.60;;;;;;5050476;28;20116;-67
2021/07/29 04:09:49;;;;;;;2.03;1.10;;;23.60;59.50;;;;;;5050527;28;20029;-67
2021/07/29 04:12:16;;;;;;;2.75;1.13;;;23.60;59.50;;;;;;5050620;28;20025;-67
2021/07/29 04:14:42;;;;;;;2.75;1.25;;;23.60;59.50;;;;;;5050210;28;20541;-68
2021/07/29 04:17:08;;;;;;;2.92;1.13;;;23.60;59.50;;;;;;5050402;28;20033;-67
2021/07/29 04:19:34;;;;;;;1.67;1.00;;;23.60;59.50;;;;;;5050419;28;20365;-67
2021/07/29 04:22:03;;;;;;;2.65;1.13;;;23.60;59.50;;;;;;5053255;28;20292;-68
2021/07/29 04:24:29;;;;;;;2.78;1.20;;;23.60;59.50;;;;;;5054162;28;20017;-67
2021/07/29 04:26:58;;;;;;;2.78;1.00;;;23.60;59.50;;;;;;5054129;28;20059;-67
2021/07/29 04:29:26;;;;;;;2.40;1.08;;;23.60;59.40;;;;;;5053949;28;20037;-67
2021/07/29 04:31:53;;;;;;;2.40;1.02;;;23.60;59.40;;;;;;5053886;28;20049;-67
2021/07/29 04:34:19;;;;;;;3.10;1.45;;;23.60;59.40;;;;;;5053801;28;20515;-67
2021/07/29 04:36:46;;;;;;;3.30;1.25;;;23.60;59.40;;;;;;5053665;28;20063;-67
2021/07/29 04:39:13;;;;;;;1.98;0.90;;;23.50;59.40;;;;;;5053704;28;20047;-67
2021/07/29 04:41:40;;;;;;;1.88;1.02;;;23.50;59.30;;;;;;5053740;28;20041;-67
2021/07/29 04:44:10;;;;;;;3.05;1.20;;;23.50;59.30;;;;;;5053663;28;20037;-67
2021/07/29 04:46:37;;;;;;;2.42;1.20;;;23.50;59.30;;;;;;5053552;28;20033;-67
2021/07/29 04:49:07;;;;;;;3.25;1.40;;;23.50;59.30;;;;;;5054013;28;20029;-67
2021/07/29 04:51:37;;;;;;;2.90;1.08;;;23.50;59.30;;;;;;5053537;28;20446;-67
2021/07/29 04:54:03;;;;;;;2.60;1.20;;;23.50;59.50;;;;;;5053456;28;20025;-67
2021/07/29 04:56:30;;;;;;;2.70;1.10;;;23.50;59.20;;;;;;5053316;28;20033;-67
2021/07/29 04:58:55;;;;;;;2.75;1.20;;;23.50;59.20;;;;;;5053450;28;20108;-67
2021/07/29 05:01:22;;;;;;;2.25;1.05;;;23.50;59.20;;;;;;5053274;28;20420;-67
2021/07/29 05:03:48;;;;;;;2.05;1.00;;;23.50;59.20;;;;;;5053285;28;20025;-68
2021/07/29 05:06:14;;;;;;;3.60;1.27;;;23.50;59.70;;;;;;5053098;28;20116;-67
2021/07/29 05:08:43;;;;;;;2.28;1.10;;;23.50;59.20;;;;;;5053210;28;20107;-67
2021/07/29 05:11:10;;;;;;;3.45;1.27;;;23.50;59.20;;;;;;5053127;28;20033;-67
2021/07/29 05:13:36;;;;;;;2.72;1.20;;;23.50;59.20;;;;;;5052805;28;20076;-67
2021/07/29 05:16:08;;;;;;;4.40;1.20;;;23.50;59.20;;;;;;5053462;28;20032;-67
2021/07/29 05:18:34;;;;;;;3.58;1.55;;;23.50;59.20;;;;;;5052987;28;20419;-67
2021/07/29 05:21:05;;;;;;;2.42;1.00;;;23.50;59.20;;;;;;5052955;28;20479;-67
2021/07/29 05:23:31;;;;;;;4.28;1.38;;;23.50;59.20;;;;;;5051795;28;20025;-67
2021/07/29 05:25:57;;;;;;;3.30;1.20;;;23.40;59.20;;;;;;5052865;28;20028;-68
2021/07/29 05:28:23;;;;;;;2.50;1.17;;;23.40;59.10;;;;;;5051483;28;20391;-67
2021/07/29 05:30:49;;;;;;;3.38;1.20;;;23.40;59.10;;;;;;5052760;28;20036;-67
2021/07/29 05:33:14;;;;;;;3.65;1.30;;;23.40;59.10;;;;;;5052804;28;20037;-67
2021/07/29 05:35:40;;;;;;;4.10;1.30;;;23.40;59.10;;;;;;5052692;28;20033;-67
2021/07/29 05:38:06;;;;;;;3.60;1.35;;;23.40;59.10;;;;;;5051185;28;20111;-67
2021/07/29 05:40:31;;;;;;;;;;;23.40;59.10;;;;;;5053103;28;20479;-67
2021/07/29 05:42:58;;;;;;;3.65;1.17;;;23.40;59.10;;;;;;5052880;28;19939;-67
2021/07/29 05:45:24;;;;;;;3.30;1.27;;;23.40;59.10;;;;;;5052501;28;20590;-67
2021/07/29 05:47:50;;;;;;;2.83;1.10;;;23.40;59.00;;;;;;5051129;28;20483;-67
2021/07/29 05:50:16;;;;;;;;;;;23.40;59.00;;;;;;5052810;28;20027;-67
2021/07/29 05:52:42;;;;;;;4.57;1.10;;;23.40;59.10;;;;;;5052395;28;19909;-67
2021/07/29 05:55:08;;;;;;;2.85;1.10;;;23.40;59.10;;;;;;5052301;28;20120;-67
2021/07/29 05:57:34;;;;;;;3.72;1.30;;;23.40;59.00;;;;;;5052094;28;20440;-67
2021/07/29 06:00:01;;;;;;;3.55;1.10;;;23.40;59.00;;;;;;5052137;28;20113;-67
2021/07/29 06:02:27;;;;;;;2.78;1.30;;;23.40;59.00;;;;;;5052109;28;20039;-67
2021/07/29 06:04:52;;;;;;;3.78;1.40;;;23.40;59.00;;;;;;5052098;28;20029;-67
2021/07/29 06:07:18;;;;;;;;;;;23.40;59.00;;;;;;5052428;28;20091;-66
2021/07/29 06:09:44;;;;;;;3.45;1.38;;;23.40;59.00;;;;;;5051987;28;19912;-68
2021/07/29 06:12:10;;;;;;;3.67;1.20;;;23.40;59.00;;;;;;5051942;28;20049;-67
2021/07/29 06:14:36;;;;;;;2.38;1.08;;;23.40;59.50;;;;;;5051678;28;20086;-67
2021/07/29 06:17:01;;;;;;;4.18;1.00;;;23.40;59.00;;;;;;5051736;28;20507;-67
2021/07/29 06:19:31;;;;;;;2.67;1.08;;;23.30;58.90;;;;;;5051789;28;20375;-66
2021/07/29 06:21:58;;;;;;;4.18;1.30;;;23.40;59.00;;;;;;5051752;28;20287;-67
2021/07/29 06:24:24;;;;;;;3.22;1.27;;;23.30;58.90;;;;;;5052047;28;20036;-67
2021/07/29 06:26:50;;;;;;;4.03;1.48;;;23.40;59.00;;;;;;5051533;28;20060;-67
2021/07/29 06:29:17;;;;;;;2.42;1.10;;;23.40;59.00;;;;;;5051697;28;20033;-67
2021/07/29 06:31:42;;;;;;;2.90;1.23;;;23.40;59.00;;;;;;5051579;28;20029;-68
2021/07/29 06:34:08;;;;;;;3.67;1.20;;;23.30;58.90;;;;;;5051473;28;20055;-68
2021/07/29 06:36:34;;;;;;;2.40;1.00;;;23.30;58.90;;;;;;5051530;28;20071;-68
2021/07/29 06:39:00;;;;;;;2.42;1.13;;;23.40;58.90;;;;;;5051438;28;20057;-68
2021/07/29 06:41:27;;;;;;;2.22;1.10;;;23.30;58.90;;;;;;5051382;28;20154;-68
2021/07/29 06:43:53;;;;;;;2.60;1.02;;;23.30;58.90;;;;;;5051071;28;20052;-68
2021/07/29 06:46:18;;;;;;;4.82;1.10;;;23.40;58.90;;;;;;5049995;28;20040;-68
2021/07/29 06:48:44;;;;;;;2.80;1.23;;;23.40;58.90;;;;;;5051276;28;20025;-68
2021/07/29 06:51:10;;;;;;;2.63;1.40;;;23.30;58.90;;;;;;5051309;28;20025;-68
2021/07/29 06:53:36;;;;;;;2.80;1.20;;;23.30;58.90;;;;;;5051688;28;20112;-68
2021/07/29 06:56:04;;;;;;;4.20;1.13;;;23.30;58.90;;;;;;5051573;28;20079;-68
2021/07/29 06:58:29;;;;;;;3.85;1.20;;;23.40;58.90;;;;;;5051241;28;20643;-68
2021/07/29 07:00:59;;;;;;;3.58;1.70;;;23.40;58.90;;;;;;5051160;28;20025;-68
2021/07/29 07:03:26;;;;;;;2.42;1.25;;;23.30;58.90;;;;;;5051250;28;20036;-68
2021/07/29 07:05:52;;;;;;;2.60;1.10;;;23.30;58.80;;;;;;5051074;28;20048;-68
2021/07/29 07:08:17;;;;;;;3.13;1.00;;;23.30;58.80;;;;;;5051074;28;20115;-68
2021/07/29 07:10:43;;;;;;;3.15;1.20;;;23.40;58.90;;;;;;5049818;28;20388;-68
2021/07/29 07:13:09;;;;;;;3.17;1.13;;;23.30;58.80;;;;;;5050733;28;20102;-68
2021/07/29 07:15:35;;;;;;;3.10;1.08;;;23.40;58.90;;;;;;5051066;28;20033;-68
2021/07/29 07:18:00;;;;;;;2.45;1.20;;;23.40;58.90;;;;;;5049819;28;20059;-68
2021/07/29 07:20:26;;;;;;;;;;;23.30;58.90;;;;;;5051367;28;20476;-68
2021/07/29 07:22:53;;;;;;;3.17;1.08;;;23.40;58.90;;;;;;5050912;28;19962;-68
2021/07/29 07:25:19;;;;;;;2.35;1.00;;;23.30;58.90;;;;;;5050798;28;20052;-68
2021/07/29 07:27:45;;;;;;;2.97;1.20;;;23.40;58.90;;;;;;5050778;28;20049;-68
2021/07/29 07:30:11;;;;;;;2.85;1.23;;;23.40;58.90;;;;;;5050854;28;20029;-68
2021/07/29 07:32:37;;;;;;;2.22;1.00;;;23.30;58.90;;;;;;5050808;28;20021;-68
2021/07/29 07:35:04;;;;;;;3.70;1.30;;;23.30;58.80;;;;;;5050664;28;20036;-68
2021/07/29 07:37:30;;;;;;;2.95;1.20;;;23.40;58.90;;;;;;5050647;28;20029;-68
2021/07/29 07:39:56;;;;;;;1.98;1.00;;;23.30;58.90;;;;;;5050749;28;20022;-68
2021/07/29 07:42:22;;;;;;;;;;;23.40;58.90;;;;;;5051221;28;20342;-68
2021/07/29 07:44:47;;;;;;;4.13;1.17;;;23.30;58.80;;;;;;5050853;28;19909;-67
2021/07/29 07:47:13;;;;;;;;;;;23.40;58.90;;;;;;5051192;28;20068;-68
2021/07/29 07:49:40;;;;;;;2.72;1.30;;;23.40;58.90;;;;;;5050693;28;19915;-68
2021/07/29 07:52:09;;;;;;;4.32;1.63;;;23.40;58.90;;;;;;5050678;28;20142;-68
2021/07/29 07:54:36;;;;;;;2.35;1.08;;;23.40;58.90;;;;;;5050540;28;20084;-68
2021/07/29 07:57:04;;;;;;;3.05;1.23;;;23.40;58.80;;;;;;5049925;28;20029;-68
2021/07/29 07:59:29;;;;;;;3.58;1.08;;;23.40;58.80;;;;;;5050819;28;20025;-68
2021/07/29 08:01:55;;;;;;;3.45;1.35;;;23.40;58.80;;;;;;5050733;28;20357;-68
2021/07/29 08:04:20;;;;;;;3.17;1.35;;;23.40;58.80;;;;;;5050633;28;20108;-68
2021/07/29 08:06:46;;;;;;;2.88;1.08;;;23.40;58.80;;;;;;5050492;28;20083;-67
2021/07/29 08:09:12;;;;;;;3.10;1.08;;;23.40;58.80;;;;;;5049344;28;20032;-68
2021/07/29 08:11:37;;;;;;;2.40;1.23;;;23.40;58.70;;;;;;5049308;28;20058;-68
2021/07/29 08:14:03;;;;;;;3.05;1.00;;;23.50;58.80;;;;;;5050311;28;20084;-68
2021/07/29 08:16:29;;;;;;;;;;;23.50;58.80;;;;;;5050765;28;20108;-68
2021/07/29 08:18:56;;;;;;;2.38;1.00;;;23.50;58.80;;;;;;5050367;28;19913;-68
2021/07/29 08:21:22;;;;;;;2.42;1.05;;;23.50;58.80;;;;;;5050230;28;20029;-68
2021/07/29 08:23:48;;;;;;;2.88;1.00;;;23.50;58.80;;;;;;5050247;28;20040;-68
2021/07/29 08:26:14;;;;;;;3.15;1.10;;;23.50;58.70;;;;;;5048909;28;20048;-68
2021/07/29 08:28:40;;;;;;;2.65;1.00;;;23.50;58.70;;;;;;5050400;28;20435;-68
2021/07/29 08:31:10;;;;;;;5.10;1.15;;;23.50;58.70;;;;;;5050086;28;20036;-68
2021/07/29 08:33:36;;;;;;;3.92;1.27;;;23.50;58.70;;;;;;5049984;28;20071;-68
2021/07/29 08:36:02;;;;;;;4.88;1.63;;;23.60;58.80;;;;;;5049977;28;20446;-68
2021/07/29 08:38:28;;;;;;;3.42;1.20;;;23.60;58.80;;;;;;5050017;28;20030;-68
2021/07/29 08:40:57;;;;;;;3.80;1.20;;;23.60;58.80;;;;;;5049935;28;20174;-68
2021/07/29 08:43:23;;;;;;;3.83;1.00;;;23.60;58.80;;;;;;5049772;28;20037;-68
2021/07/29 08:45:51;;;;;;;3.35;1.30;;;23.60;58.80;;;;;;5049668;28;20040;-68
2021/07/29 08:48:23;;;;;;;2.53;1.00;;;23.60;58.80;;;;;;5049833;28;20426;-68
2021/07/29 08:50:49;;;;;;;3.42;1.13;;;23.60;58.80;;;;;;5049672;28;20435;-68
2021/07/29 08:53:14;;;;;;;2.70;1.10;;;23.60;58.80;;;;;;5050072;28;20029;-68
2021/07/29 08:55:40;;;;;;;;;;;23.60;58.80;;;;;;5050086;28;20040;-68
2021/07/29 08:58:06;;;;;;;2.65;1.10;;;23.60;58.80;;;;;;5048327;28;19913;-68
2021/07/29 09:00:31;;;;;;;3.22;1.25;;;23.60;58.80;;;;;;5048321;28;20059;-68
2021/07/29 09:03:21;;;;;;;5.03;1.30;;;23.70;58.90;;;;;;5049548;28;20093;-68
2021/07/29 09:06:08;;;;;;;2.25;1.00;;;23.70;58.90;;;;;;5049477;28;20045;-67
2021/07/29 09:08:53;;;;;;;3.97;1.65;;;23.70;58.90;;;;;;5048084;28;20025;-68
2021/07/29 09:11:35;;;;;;;3.80;1.38;;;23.70;58.90;;;;;;5049456;28;20017;-68
2021/07/29 09:14:02;;;;;;;4.03;1.70;;;23.70;58.90;;;;;;5049163;28;20033;-68
2021/07/29 09:16:28;;;;;;;3.03;1.30;;;23.70;58.90;;;;;;5049499;28;20507;-68
2021/07/29 09:18:54;;;;;;;4.00;1.10;;;23.70;59.00;;;;;;5049659;28;20037;-71
2021/07/29 09:21:20;;;;;;;2.67;1.13;;;23.70;59.00;;;;;;5056496;28;20038;-70
2021/07/29 09:24:06;;;;;;;3.72;1.10;;;23.70;58.90;;;;;;5061600;28;20039;-71
2021/07/29 09:26:55;;;;;;;2.65;1.20;;;23.80;58.60;;;;;;5059517;28;20028;-73
